Time;durP1;ratioP1;P1;durP2;ratioP2;P2;SDS_P1;SDS_P2;PMS_P1;PMS_P2;Temp;Humidity;BMP_temperature;BMP_pressure;BME280_temperature;BME280_humidity;BME280_pressure;Samples;Min_cycle;Max_cycle;Signal;HPM_P1;HPM_P2
2023/08/12 00:02:02;;;;;;;4.72;3.50;;;;;;;;;;5013197;28;20088;-78
2023/08/12 00:04:29;;;;;;;7.05;3.80;;;;;;;;;;5024357;28;20053;-77
2023/08/12 00:06:56;;;;;;;4.80;3.40;;;;;;;;;;5019627;28;20109;-80
2023/08/12 00:09:22;;;;;;;4.85;3.53;;;;;;;;;;5032375;28;20056;-79
2023/08/12 00:11:49;;;;;;;5.47;3.80;;;;;;;;;;5026306;28;20427;-79
2023/08/12 00:14:17;;;;;;;5.70;4.03;;;;;;;;;;5025600;28;20128;-79
2023/08/12 00:16:44;;;;;;;5.15;3.97;;;;;;;;;;5015769;28;20057;-79
2023/08/12 00:19:10;;;;;;;4.90;3.70;;;;;;;;;;5015089;28;20100;-78
2023/08/12 00:21:37;;;;;;;5.05;3.90;;;;;;;;;;5017988;28;20578;-78
2023/08/12 00:24:04;;;;;;;4.72;3.53;;;;;;;;;;5018603;28;20521;-79
2023/08/12 00:26:31;;;;;;;5.13;3.70;;;;;;;;;;5024413;28;20149;-78
2023/08/12 00:28:57;;;;;;;5.68;3.70;;;;;;;;;;5013898;28;20045;-79
2023/08/12 00:31:26;;;;;;;5.50;3.75;;;;;;;;;;5016407;28;20129;-79
2023/08/12 00:33:52;;;;;;;6.55;4.15;;;;;;;;;;5021075;28;20038;-79
2023/08/12 00:36:19;;;;;;;6.07;3.95;;;;;;;;;;5017314;28;20109;-79
2023/08/12 00:38:45;;;;;;;5.35;3.92;;;;;;;;;;5034102;28;20068;-79
2023/08/12 00:41:12;;;;;;;5.10;3.63;;;;;;;;;;5018564;28;20073;-79
2023/08/12 00:43:39;;;;;;;5.40;3.65;;;;;;;;;;5017197;28;20049;-79
2023/08/12 00:46:05;;;;;;;5.38;3.85;;;;;;;;;;5036903;28;21527;-79
2023/08/12 00:48:33;;;;;;;4.53;3.50;;;;;;;;;;5018760;28;20077;-79
2023/08/12 00:51:00;;;;;;;5.90;4.50;;;;;;;;;;5034323;28;20049;-80
2023/08/12 00:53:28;;;;;;;5.57;3.83;;;;;;;;;;5030282;28;20145;-77
2023/08/12 00:55:55;;;;;;;5.00;3.80;;;;;;;;;;5009799;28;20078;-79
2023/08/12 00:58:22;;;;;;;6.60;4.30;;;;;;;;;;5016590;28;20136;-78
2023/08/12 01:00:50;;;;;;;5.40;4.00;;;;;;;;;;5014198;28;20062;-79
2023/08/12 01:03:16;;;;;;;5.78;4.05;;;;;;;;;;5014550;28;20420;-79
2023/08/12 01:05:45;;;;;;;6.00;4.40;;;;;;;;;;5019103;28;20080;-79
2023/08/12 01:08:11;;;;;;;4.75;3.60;;;;;;;;;;5024144;28;20080;-79
2023/08/12 01:10:44;;;;;;;14.48;11.10;;;;;;;;;;5026108;28;20377;-79
2023/08/12 01:13:20;;;;;;;7.18;4.57;;;;;;;;;;5014671;28;20065;-79
2023/08/12 01:15:50;;;;;;;5.18;4.05;;;;;;;;;;5013525;28;20137;-78
2023/08/12 01:18:18;;;;;;;5.57;4.20;;;;;;;;;;5015483;28;20084;-79
2023/08/12 01:20:47;;;;;;;6.95;4.05;;;;;;;;;;5017482;28;20132;-79
2023/08/12 01:23:15;;;;;;;6.38;5.05;;;;;;;;;;5019139;28;20073;-79
2023/08/12 01:25:42;;;;;;;6.95;4.75;;;;;;;;;;5020831;28;20476;-79
2023/08/12 01:28:09;;;;;;;5.82;4.30;;;;;;;;;;5016469;28;20088;-78
2023/08/12 01:30:44;;;;;;;6.35;4.45;;;;;;;;;;5016845;28;20061;-79
2023/08/12 01:33:18;;;;;;;5.38;3.72;;;;;;;;;;5017229;28;20081;-79
2023/08/12 01:35:52;;;;;;;8.40;3.90;;;;;;;;;;5016408;28;20117;-79
2023/08/12 01:38:21;;;;;;;5.20;3.90;;;;;;;;;;5016402;28;20053;-79
2023/08/12 01:40:48;;;;;;;7.15;4.30;;;;;;;;;;5017236;28;20054;-79
2023/08/12 01:43:16;;;;;;;5.53;3.97;;;;;;;;;;5016845;28;20475;-80
2023/08/12 01:45:43;;;;;;;6.40;5.03;;;;;;;;;;5029257;28;20084;-79
2023/08/12 01:48:10;;;;;;;5.72;4.20;;;;;;;;;;5020145;28;20293;-79
2023/08/12 01:50:37;;;;;;;6.15;3.95;;;;;;;;;;5020301;28;20061;-79
2023/08/12 01:53:04;;;;;;;6.28;4.45;;;;;;;;;;5020044;28;20070;-78
2023/08/12 01:55:32;;;;;;;6.05;4.25;;;;;;;;;;5023756;28;20073;-78
2023/08/12 01:57:59;;;;;;;5.60;4.07;;;;;;;;;;5016333;28;20512;-79
2023/08/12 02:00:25;;;;;;;6.30;4.38;;;;;;;;;;5016859;28;20042;-79
2023/08/12 02:02:52;;;;;;;5.90;3.80;;;;;;;;;;5021217;28;20096;-79
2023/08/12 02:05:19;;;;;;;6.47;3.97;;;;;;;;;;5021480;28;20049;-79
2023/08/12 02:07:46;;;;;;;5.88;4.13;;;;;;;;;;5028125;28;20068;-79
2023/08/12 02:10:14;;;;;;;5.78;4.18;;;;;;;;;;5020200;28;20045;-79
2023/08/12 02:12:42;;;;;;;6.32;4.32;;;;;;;;;;5017584;28;20050;-79
2023/08/12 02:15:10;;;;;;;6.03;4.57;;;;;;;;;;5016081;28;20046;-78
2023/08/12 02:17:37;;;;;;;5.97;4.43;;;;;;;;;;5016821;28;20049;-79
2023/08/12 02:20:05;;;;;;;6.03;4.30;;;;;;;;;;5018733;28;20042;-80
2023/08/12 02:22:31;;;;;;;6.75;4.28;;;;;;;;;;5026726;28;20052;-80
2023/08/12 02:24:58;;;;;;;6.65;4.60;;;;;;;;;;5041487;28;20504;-79
2023/08/12 02:27:25;;;;;;;5.97;4.35;;;;;;;;;;5042620;28;20045;-79
2023/08/12 02:29:53;;;;;;;5.40;4.00;;;;;;;;;;5042273;28;20057;-77
2023/08/12 02:32:20;;;;;;;5.50;4.40;;;;;;;;;;5043029;28;20103;-78
2023/08/12 02:34:46;;;;;;;6.35;4.80;;;;;;;;;;5042111;28;20068;-78
2023/08/12 02:37:13;;;;;;;5.95;4.18;;;;;;;;;;5041430;28;20101;-79
2023/08/12 02:39:40;;;;;;;6.70;4.30;;;;;;;;;;5041003;28;20059;-79
2023/08/12 02:42:06;;;;;;;5.78;4.05;;;;;;;;;;5041533;28;20144;-79
2023/08/12 02:44:33;;;;;;;5.43;4.35;;;;;;;;;;5041246;28;20053;-79
2023/08/12 02:47:01;;;;;;;7.65;4.80;;;;;;;;;;5042379;28;20049;-79
2023/08/12 02:49:28;;;;;;;5.82;4.55;;;;;;;;;;5042251;28;20054;-79
2023/08/12 02:51:54;;;;;;;6.07;4.13;;;;;;;;;;5042246;28;20042;-79
2023/08/12 02:54:21;;;;;;;5.30;3.92;;;;;;;;;;5045118;28;20049;-78
2023/08/12 02:56:48;;;;;;;5.95;4.47;;;;;;;;;;5041542;28;20048;-79
2023/08/12 02:59:14;;;;;;;6.20;4.78;;;;;;;;;;5040716;28;20081;-79
2023/08/12 03:01:43;;;;;;;6.10;4.80;;;;;;;;;;5040263;28;20524;-79
2023/08/12 03:04:11;;;;;;;6.38;4.57;;;;;;;;;;5040402;28;20045;-79
2023/08/12 03:06:37;;;;;;;6.05;4.20;;;;;;;;;;5040023;28;20071;-78
2023/08/12 03:09:04;;;;;;;6.07;4.35;;;;;;;;;;5039157;28;20120;-79
2023/08/12 03:11:31;;;;;;;5.53;4.50;;;;;;;;;;5039430;28;20148;-79
2023/08/12 03:13:58;;;;;;;7.00;4.78;;;;;;;;;;5039819;28;20053;-79
2023/08/12 03:16:24;;;;;;;6.75;4.25;;;;;;;;;;5039788;28;20065;-78
2023/08/12 03:18:51;;;;;;;6.72;4.55;;;;;;;;;;5040473;28;20045;-78
2023/08/12 03:21:19;;;;;;;6.68;4.82;;;;;;;;;;5039674;28;20045;-79
2023/08/12 03:23:46;;;;;;;5.95;4.53;;;;;;;;;;5037458;28;20049;-78
2023/08/12 03:26:14;;;;;;;5.45;4.50;;;;;;;;;;5036334;28;20073;-79
2023/08/12 03:28:40;;;;;;;5.72;4.43;;;;;;;;;;5035675;28;20062;-78
2023/08/12 03:31:07;;;;;;;5.63;4.47;;;;;;;;;;5035979;28;20455;-77
2023/08/12 03:33:34;;;;;;;6.28;5.13;;;;;;;;;;5035308;28;20435;-78
2023/08/12 03:36:01;;;;;;;6.65;4.32;;;;;;;;;;5035607;28;20050;-78
2023/08/12 03:38:29;;;;;;;5.38;4.28;;;;;;;;;;5036618;28;20045;-79
2023/08/12 03:40:56;;;;;;;6.53;4.47;;;;;;;;;;5050703;28;20054;-78
2023/08/12 03:43:23;;;;;;;6.50;4.70;;;;;;;;;;5055934;28;20053;-79
2023/08/12 03:45:49;;;;;;;6.78;4.40;;;;;;;;;;5056066;28;20053;-80
2023/08/12 03:48:16;;;;;;;6.20;4.78;;;;;;;;;;5054635;28;20053;-78
2023/08/12 03:50:45;;;;;;;6.13;4.78;;;;;;;;;;5053795;28;20088;-79
2023/08/12 03:53:12;;;;;;;6.80;5.10;;;;;;;;;;5053625;28;20487;-79
2023/08/12 03:55:40;;;;;;;6.85;4.40;;;;;;;;;;5053649;28;20484;-79
2023/08/12 03:58:06;;;;;;;5.85;4.68;;;;;;;;;;5053898;28;20069;-79
2023/08/12 04:00:33;;;;;;;6.07;4.93;;;;;;;;;;5053717;28;20049;-78
2023/08/12 04:03:00;;;;;;;6.97;4.60;;;;;;;;;;5054006;28;20049;-78
2023/08/12 04:05:26;;;;;;;6.30;5.03;;;;;;;;;;5053700;28;20080;-79
2023/08/12 04:07:53;;;;;;;6.88;4.57;;;;;;;;;;5053916;28;20072;-79
2023/08/12 04:10:20;;;;;;;6.43;4.85;;;;;;;;;;5054186;28;20046;-79
2023/08/12 04:12:48;;;;;;;6.38;4.70;;;;;;;;;;5053949;28;20076;-79
2023/08/12 04:15:14;;;;;;;7.13;5.05;;;;;;;;;;5036263;28;20041;-79
2023/08/12 04:17:41;;;;;;;5.95;5.13;;;;;;;;;;5019849;28;20052;-78
2023/08/12 04:20:09;;;;;;;7.03;5.35;;;;;;;;;;5027591;28;20070;-79
2023/08/12 04:22:36;;;;;;;7.03;5.57;;;;;;;;;;5036608;28;20042;-78
2023/08/12 04:25:03;;;;;;;6.72;4.72;;;;;;;;;;5014507;28;20058;-79
2023/08/12 04:27:30;;;;;;;7.10;4.53;;;;;;;;;;5021260;28;20107;-79
2023/08/12 04:29:58;;;;;;;6.72;4.82;;;;;;;;;;5014392;28;20049;-79
2023/08/12 04:32:25;;;;;;;6.20;4.78;;;;;;;;;;5023308;28;20050;-79
2023/08/12 04:34:52;;;;;;;6.65;4.80;;;;;;;;;;5026326;28;21478;-78
2023/08/12 04:37:18;;;;;;;5.72;4.32;;;;;;;;;;5033792;28;20500;-79
2023/08/12 04:39:45;;;;;;;6.45;5.00;;;;;;;;;;5032186;28;20455;-79
2023/08/12 04:42:12;;;;;;;6.80;5.07;;;;;;;;;;5026017;28;20045;-79
2023/08/12 04:44:39;;;;;;;6.15;4.65;;;;;;;;;;5033957;28;20049;-79
2023/08/12 04:47:07;;;;;;;6.93;4.85;;;;;;;;;;5028256;28;20136;-79
2023/08/12 04:49:33;;;;;;;8.43;5.45;;;;;;;;;;5026038;28;20045;-79
2023/08/12 04:52:00;;;;;;;5.72;4.70;;;;;;;;;;5025939;28;20166;-80
2023/08/12 04:54:27;;;;;;;6.40;5.05;;;;;;;;;;5037934;28;20052;-78
2023/08/12 04:56:53;;;;;;;6.05;4.93;;;;;;;;;;5046901;28;20052;-79
2023/08/12 04:59:20;;;;;;;8.32;5.13;;;;;;;;;;5046361;28;20049;-79
2023/08/12 05:01:47;;;;;;;6.55;4.47;;;;;;;;;;5040348;28;20072;-79
2023/08/12 05:04:15;;;;;;;8.10;5.32;;;;;;;;;;5025171;28;20050;-79
2023/08/12 05:06:41;;;;;;;6.00;4.80;;;;;;;;;;5031983;28;20582;-79
2023/08/12 05:09:08;;;;;;;6.30;4.85;;;;;;;;;;5023916;28;20103;-79
2023/08/12 05:11:35;;;;;;;6.43;4.65;;;;;;;;;;5035479;28;20053;-79
2023/08/12 05:14:01;;;;;;;6.15;5.07;;;;;;;;;;5028474;28;20060;-80
2023/08/12 05:16:28;;;;;;;6.40;5.00;;;;;;;;;;5006334;28;20100;-79
2023/08/12 05:18:55;;;;;;;6.18;4.80;;;;;;;;;;5020156;28;20041;-79
2023/08/12 05:21:23;;;;;;;7.70;4.63;;;;;;;;;;5039779;28;20511;-79
2023/08/12 05:23:50;;;;;;;6.07;5.18;;;;;;;;;;5025581;28;20054;-79
2023/08/12 05:26:17;;;;;;;7.22;5.20;;;;;;;;;;5026915;28;20061;-79
2023/08/12 05:28:43;;;;;;;7.78;6.35;;;;;;;;;;5031985;28;20064;-79
2023/08/12 05:31:10;;;;;;;6.53;5.20;;;;;;;;;;5028510;28;20452;-79
2023/08/12 05:33:37;;;;;;;8.43;5.90;;;;;;;;;;5057032;22;20143;-77
2023/08/12 05:36:04;;;;;;;7.07;5.38;;;;;;;;;;5045818;28;20045;-77
2023/08/12 05:38:33;;;;;;;8.77;5.45;;;;;;;;;;5052406;28;20085;-77
2023/08/12 05:40:59;;;;;;;6.78;5.40;;;;;;;;;;5054148;28;20049;-78
2023/08/12 05:43:26;;;;;;;6.70;5.15;;;;;;;;;;5054717;28;20110;-77
2023/08/12 05:45:53;;;;;;;6.45;5.18;;;;;;;;;;5053162;28;20567;-78
2023/08/12 05:48:19;;;;;;;6.32;5.07;;;;;;;;;;5055213;28;20068;-75
2023/08/12 05:50:46;;;;;;;7.65;5.35;;;;;;;;;;5054819;28;20426;-76
2023/08/12 05:53:12;;;;;;;6.22;4.90;;;;;;;;;;5054731;28;20092;-77
2023/08/12 05:55:40;;;;;;;6.32;5.30;;;;;;;;;;5054541;28;20070;-77
2023/08/12 05:58:08;;;;;;;6.32;4.85;;;;;;;;;;5054341;28;20045;-77
2023/08/12 06:00:35;;;;;;;6.38;5.32;;;;;;;;;;5054522;28;20111;-76
2023/08/12 06:03:02;;;;;;;6.90;5.38;;;;;;;;;;5054408;28;20065;-76
2023/08/12 06:05:28;;;;;;;12.32;5.00;;;;;;;;;;5043993;28;20045;-77
2023/08/12 06:07:55;;;;;;;6.55;4.72;;;;;;;;;;5054572;28;20049;-76
2023/08/12 06:10:21;;;;;;;6.82;5.20;;;;;;;;;;5058061;28;20219;-77
2023/08/12 06:12:49;;;;;;;6.32;5.22;;;;;;;;;;5059210;28;20045;-77
2023/08/12 06:15:16;;;;;;;7.13;4.90;;;;;;;;;;5054016;28;20037;-77
2023/08/12 06:17:42;;;;;;;7.43;5.30;;;;;;;;;;5053358;28;20380;-77
2023/08/12 06:20:10;;;;;;;6.50;5.13;;;;;;;;;;5054135;28;20037;-76
2023/08/12 06:22:37;;;;;;;5.70;4.85;;;;;;;;;;5054117;28;20052;-75
2023/08/12 06:25:03;;;;;;;7.05;5.07;;;;;;;;;;5054118;28;20043;-77
2023/08/12 06:27:30;;;;;;;7.18;4.93;;;;;;;;;;5054072;28;20044;-76
2023/08/12 06:29:58;;;;;;;7.47;5.05;;;;;;;;;;5053825;28;20418;-76
2023/08/12 06:32:24;;;;;;;8.50;5.35;;;;;;;;;;5048092;28;20385;-76
2023/08/12 06:34:51;;;;;;;5.03;4.40;;;;;;;;;;5053226;28;20486;-77
2023/08/12 06:37:18;;;;;;;6.75;4.65;;;;;;;;;;5054130;28;20057;-77
2023/08/12 06:39:44;;;;;;;6.28;4.95;;;;;;;;;;5053813;28;20044;-76
2023/08/12 06:42:11;;;;;;;7.20;4.75;;;;;;;;;;5054184;28;20127;-76
2023/08/12 06:44:37;;;;;;;7.30;5.32;;;;;;;;;;5053654;28;20060;-77
2023/08/12 06:47:05;;;;;;;6.18;4.53;;;;;;;;;;5053498;28;20045;-76
2023/08/12 06:49:32;;;;;;;6.38;4.95;;;;;;;;;;5054065;28;20041;-76
2023/08/12 06:51:58;;;;;;;6.13;5.30;;;;;;;;;;5053928;28;20068;-78
2023/08/12 06:54:25;;;;;;;5.82;4.78;;;;;;;;;;5053575;28;20047;-77
2023/08/12 06:56:52;;;;;;;6.32;4.68;;;;;;;;;;5054263;28;20045;-77
2023/08/12 06:59:18;;;;;;;5.43;4.68;;;;;;;;;;5051505;28;20515;-77
2023/08/12 07:01:45;;;;;;;5.25;4.22;;;;;;;;;;5045884;28;20045;-75
2023/08/12 07:04:13;;;;;;;6.40;4.43;;;;;;;;;;5052934;28;20219;-76
2023/08/12 07:06:40;;;;;;;7.45;4.80;;;;;;;;;;5052882;28;20075;-77
2023/08/12 07:09:06;;;;;;;5.85;4.30;;;;;;;;;;5052999;28;20543;-77
2023/08/12 07:11:33;;;;;;;5.00;4.18;;;;;;;;;;5041379;28;20071;-77
2023/08/12 07:13:59;;;;;;;5.68;4.85;;;;;;;;;;5045863;28;20053;-77
2023/08/12 07:16:26;;;;;;;5.47;4.43;;;;;;;;;;5054326;28;20088;-77
2023/08/12 07:18:53;;;;;;;6.15;4.90;;;;;;;;;;5054347;28;20037;-78
2023/08/12 07:21:21;;;;;;;5.53;4.57;;;;;;;;;;5051449;28;20187;-77
2023/08/12 07:23:48;;;;;;;6.78;4.65;;;;;;;;;;5049766;28;20140;-77
2023/08/12 07:26:14;;;;;;;5.40;3.88;;;;;;;;;;5051655;28;20064;-77
2023/08/12 07:28:42;;;;;;;6.63;4.68;;;;;;;;;;5051977;28;20045;-76
2023/08/12 07:31:09;;;;;;;5.82;4.50;;;;;;;;;;5053829;28;20048;-76
2023/08/12 07:33:36;;;;;;;5.50;4.50;;;;;;;;;;5046114;28;20044;-77
2023/08/12 07:36:02;;;;;;;7.25;4.55;;;;;;;;;;5046642;28;20049;-77
2023/08/12 07:38:31;;;;;;;6.18;4.40;;;;;;;;;;5041167;28;20095;-77
2023/08/12 07:41:03;;;;;;;6.15;4.38;;;;;;;;;;5046837;28;20056;-77
2023/08/12 07:43:30;;;;;;;4.60;3.70;;;;;;;;;;5053713;28;20454;-76
2023/08/12 07:45:56;;;;;;;5.85;4.78;;;;;;;;;;5053487;28;20045;-77
2023/08/12 07:48:24;;;;;;;5.35;4.18;;;;;;;;;;5052156;28;20536;-78
2023/08/12 07:50:57;;;;;;;5.40;4.57;;;;;;;;;;5052402;28;20141;-77
2023/08/12 07:53:24;;;;;;;4.97;4.32;;;;;;;;;;5052237;28;20045;-77
2023/08/12 07:55:53;;;;;;;5.25;4.22;;;;;;;;;;5052410;28;20057;-76
2023/08/12 07:58:19;;;;;;;5.40;4.25;;;;;;;;;;5051859;28;20480;-75
2023/08/12 08:00:46;;;;;;;6.82;4.85;;;;;;;;;;5052112;28;20151;-76
2023/08/12 08:03:13;;;;;;;5.97;4.60;;;;;;;;;;5051985;28;20132;-76
2023/08/12 08:05:41;;;;;;;5.97;4.72;;;;;;;;;;5050355;28;20046;-77
2023/08/12 08:08:08;;;;;;;5.90;4.40;;;;;;;;;;5039939;28;20538;-77
2023/08/12 08:10:34;;;;;;;5.47;4.55;;;;;;;;;;5051756;28;20495;-76
2023/08/12 08:13:03;;;;;;;7.18;4.32;;;;;;;;;;5051310;28;20045;-77
2023/08/12 08:15:29;;;;;;;7.05;4.60;;;;;;;;;;5051590;28;20053;-76
2023/08/12 08:17:56;;;;;;;5.95;4.70;;;;;;;;;;5050449;28;20081;-77
2023/08/12 08:20:23;;;;;;;6.88;4.55;;;;;;;;;;5051704;28;20069;-77
2023/08/12 08:22:49;;;;;;;7.00;4.60;;;;;;;;;;5051825;28;20048;-75
2023/08/12 08:25:16;;;;;;;5.60;4.88;;;;;;;;;;5050994;28;20459;-76
2023/08/12 08:27:43;;;;;;;5.53;4.68;;;;;;;;;;5050860;28;20098;-78
2023/08/12 08:30:12;;;;;;;6.10;4.50;;;;;;;;;;5048533;28;20134;-77
2023/08/12 08:32:38;;;;;;;4.97;4.27;;;;;;;;;;5050039;28;20451;-77
2023/08/12 08:35:06;;;;;;;5.03;4.20;;;;;;;;;;5050903;28;20049;-77
2023/08/12 08:37:32;;;;;;;6.60;4.70;;;;;;;;;;5050966;28;20411;-77
2023/08/12 08:39:59;;;;;;;5.15;4.32;;;;;;;;;;5052471;28;20303;-77
2023/08/12 08:42:26;;;;;;;5.82;4.30;;;;;;;;;;5050683;28;20069;-76
2023/08/12 08:44:54;;;;;;;4.93;4.18;;;;;;;;;;5053958;28;20128;-78
2023/08/12 08:47:27;;;;;;;5.97;4.63;;;;;;;;;;5055321;28;20496;-77
2023/08/12 08:49:55;;;;;;;6.32;5.00;;;;;;;;;;5054617;28;20075;-77
2023/08/12 08:52:23;;;;;;;5.65;4.93;;;;;;;;;;5051198;28;20459;-78
2023/08/12 08:54:50;;;;;;;6.65;4.47;;;;;;;;;;5047552;28;20053;-76
2023/08/12 08:57:17;;;;;;;6.95;5.07;;;;;;;;;;5050525;28;20106;-76
2023/08/12 08:59:44;;;;;;;6.15;4.57;;;;;;;;;;5049303;28;20110;-76
2023/08/12 09:02:17;;;;;;;5.15;4.60;;;;;;;;;;5049553;28;20129;-77
2023/08/12 09:04:45;;;;;;;5.80;4.68;;;;;;;;;;5050967;28;20345;-77
2023/08/12 09:07:13;;;;;;;5.60;4.50;;;;;;;;;;5048469;28;20051;-76
2023/08/12 09:09:42;;;;;;;5.00;4.40;;;;;;;;;;5048287;28;20052;-76
2023/08/12 09:12:15;;;;;;;5.35;4.32;;;;;;;;;;5047204;28;20044;-76
2023/08/12 09:14:42;;;;;;;5.40;4.40;;;;;;;;;;5050850;28;20152;-76
2023/08/12 09:17:08;;;;;;;5.35;3.95;;;;;;;;;;5050182;28;20482;-75
2023/08/12 09:19:35;;;;;;;5.65;4.28;;;;;;;;;;5048334;28;20049;-76
2023/08/12 09:22:06;;;;;;;5.28;4.70;;;;;;;;;;5048118;28;20053;-75
2023/08/12 09:24:32;;;;;;;5.40;4.18;;;;;;;;;;5047110;28;20045;-77
2023/08/12 09:26:59;;;;;;;6.65;4.60;;;;;;;;;;5052497;28;20079;-76
2023/08/12 09:29:30;;;;;;;5.43;4.90;;;;;;;;;;5049260;28;20117;-76
2023/08/12 09:32:06;;;;;;;5.68;4.20;;;;;;;;;;5050820;28;20049;-77
2023/08/12 09:34:33;;;;;;;5.10;4.43;;;;;;;;;;5048689;28;20066;-77
2023/08/12 09:37:00;;;;;;;4.97;4.32;;;;;;;;;;5050199;28;20475;-76
2023/08/12 09:39:30;;;;;;;5.97;4.55;;;;;;;;;;5048096;28;20132;-77
2023/08/12 09:41:57;;;;;;;6.20;4.55;;;;;;;;;;5046344;28;20052;-76
2023/08/12 09:44:24;;;;;;;6.03;4.30;;;;;;;;;;5050247;28;20041;-77
2023/08/12 09:46:58;;;;;;;6.70;4.50;;;;;;;;;;5050654;28;20040;-77
2023/08/12 09:49:24;;;;;;;5.72;4.60;;;;;;;;;;5054472;28;20060;-77
2023/08/12 09:51:52;;;;;;;5.45;4.53;;;;;;;;;;5058163;28;20093;-81
2023/08/12 09:54:20;;;;;;;5.95;4.35;;;;;;;;;;5062235;28;20029;-79
2023/08/12 09:56:49;;;;;;;7.40;4.80;;;;;;;;;;5049479;28;20107;-82
2023/08/12 09:59:20;;;;;;;5.60;4.30;;;;;;;;;;5061707;28;20047;-80
2023/08/12 10:01:47;;;;;;;6.75;4.43;;;;;;;;;;5056087;28;20056;-77
2023/08/12 10:04:17;;;;;;;5.50;4.13;;;;;;;;;;5058458;28;20045;-80
2023/08/12 10:06:44;;;;;;;6.07;4.45;;;;;;;;;;5057763;28;20424;-79
2023/08/12 10:09:12;;;;;;;6.10;4.65;;;;;;;;;;5051972;28;20076;-76
2023/08/12 10:11:42;;;;;;;6.22;4.70;;;;;;;;;;5045887;28;20053;-76
2023/08/12 10:14:11;;;;;;;6.32;4.88;;;;;;;;;;5050074;28;20098;-76
2023/08/12 10:16:38;;;;;;;7.37;5.13;;;;;;;;;;5048702;28;20057;-75
2023/08/12 10:19:06;;;;;;;6.32;5.03;;;;;;;;;;5050579;28;20040;-76
2023/08/12 10:21:33;;;;;;;6.47;5.22;;;;;;;;;;5050715;28;20048;-75
2023/08/12 10:24:00;;;;;;;5.70;5.10;;;;;;;;;;5053008;28;20426;-76
2023/08/12 10:26:27;;;;;;;5.82;5.03;;;;;;;;;;5053483;28;20049;-76
2023/08/12 10:28:56;;;;;;;7.15;4.97;;;;;;;;;;5048881;28;20098;-76
2023/08/12 10:31:31;;;;;;;6.90;4.80;;;;;;;;;;5048507;28;20092;-76
2023/08/12 10:33:58;;;;;;;6.15;4.90;;;;;;;;;;5051176;28;20526;-77
2023/08/12 10:36:27;;;;;;;6.28;4.60;;;;;;;;;;5052289;28;20051;-76
2023/08/12 10:38:54;;;;;;;7.03;4.55;;;;;;;;;;5051691;28;20059;-77
2023/08/12 10:41:23;;;;;;;5.85;4.40;;;;;;;;;;5044905;28;20053;-76
2023/08/12 10:43:52;;;;;;;5.38;4.38;;;;;;;;;;5047229;28;20045;-76
2023/08/12 10:46:31;;;;;;;4.53;3.78;;;;;;;;;;5048723;28;20071;-76
2023/08/12 10:49:01;;;;;;;4.63;3.73;;;;;;;;;;5052951;28;20053;-77
2023/08/12 10:51:41;;;;;;;5.18;4.10;;;;;;;;;;5047725;28;20076;-76
2023/08/12 10:54:14;;;;;;;;;;;;;;;;;;5053116;28;20045;-77
2023/08/12 10:57:05;;;;;;;5.38;4.32;;;;;;;;;;5052657;28;20061;-77
2023/08/12 10:59:52;;;;;;;5.32;3.80;;;;;;;;;;5045277;28;20494;-77
2023/08/12 11:02:21;;;;;;;4.60;3.72;;;;;;;;;;5044721;28;20041;-76
2023/08/12 11:04:50;;;;;;;6.57;3.72;;;;;;;;;;5052589;28;20041;-77
2023/08/12 11:07:19;;;;;;;4.82;3.50;;;;;;;;;;5042643;28;20093;-77
2023/08/12 11:09:47;;;;;;;7.63;3.75;;;;;;;;;;5050484;28;20395;-76
2023/08/12 11:12:18;;;;;;;5.85;3.42;;;;;;;;;;5051846;28;20041;-76
2023/08/12 11:14:49;;;;;;;5.35;3.35;;;;;;;;;;5046475;28;20287;-76
2023/08/12 11:17:16;;;;;;;4.65;3.42;;;;;;;;;;5049009;28;20486;-76
2023/08/12 11:19:44;;;;;;;5.72;3.63;;;;;;;;;;5050439;28;20116;-76
2023/08/12 11:22:12;;;;;;;4.60;3.92;;;;;;;;;;5050370;28;20041;-77
2023/08/12 11:24:41;;;;;;;5.30;3.70;;;;;;;;;;5049196;28;20072;-76
2023/08/12 11:27:11;;;;;;;5.13;3.80;;;;;;;;;;5052823;28;20124;-75
2023/08/12 11:29:38;;;;;;;5.38;3.88;;;;;;;;;;5052401;28;20051;-76
2023/08/12 11:32:06;;;;;;;6.07;4.25;;;;;;;;;;5049509;28;20041;-75
2023/08/12 11:34:33;;;;;;;5.57;3.85;;;;;;;;;;5052774;28;20099;-76
2023/08/12 11:37:01;;;;;;;5.18;4.00;;;;;;;;;;5054196;28;20129;-76
2023/08/12 11:39:28;;;;;;;5.40;4.07;;;;;;;;;;5047410;28;20045;-76
2023/08/12 11:41:54;;;;;;;6.25;5.07;;;;;;;;;;5046374;28;20052;-76
2023/08/12 11:44:22;;;;;;;5.38;4.60;;;;;;;;;;5039676;28;20119;-75
2023/08/12 11:46:50;;;;;;;7.85;4.93;;;;;;;;;;5061088;28;20482;-78
2023/08/12 11:49:16;;;;;;;5.50;4.13;;;;;;;;;;5056585;28;20055;-77
2023/08/12 11:51:45;;;;;;;5.32;3.95;;;;;;;;;;5052386;28;20052;-75
2023/08/12 11:54:14;;;;;;;5.57;4.13;;;;;;;;;;5052478;28;20131;-77
2023/08/12 11:56:40;;;;;;;4.82;3.72;;;;;;;;;;5052504;28;20329;-77
2023/08/12 11:59:07;;;;;;;7.45;4.10;;;;;;;;;;5052268;28;20068;-77
2023/08/12 12:01:34;;;;;;;4.65;3.90;;;;;;;;;;5052290;28;20136;-77
2023/08/12 12:04:01;;;;;;;5.50;3.80;;;;;;;;;;5052032;28;20052;-77
2023/08/12 12:06:30;;;;;;;4.53;3.60;;;;;;;;;;5052545;28;20080;-77
2023/08/12 12:08:58;;;;;;;4.63;3.60;;;;;;;;;;5052529;28;20056;-77
2023/08/12 12:11:26;;;;;;;4.78;4.07;;;;;;;;;;5051574;28;20278;-77
2023/08/12 12:13:52;;;;;;;4.68;3.80;;;;;;;;;;5051885;28;20072;-77
2023/08/12 12:16:19;;;;;;;5.45;4.05;;;;;;;;;;5051992;28;20106;-76
2023/08/12 12:18:46;;;;;;;5.00;3.90;;;;;;;;;;5051800;28;20064;-76
2023/08/12 12:21:21;;;;;;;4.95;3.88;;;;;;;;;;5049124;28;20084;-77
2023/08/12 12:23:47;;;;;;;5.28;4.10;;;;;;;;;;5053390;22;20046;-77
2023/08/12 12:26:14;;;;;;;5.32;3.53;;;;;;;;;;5004732;28;20112;-78
2023/08/12 12:28:42;;;;;;;5.38;3.60;;;;;;;;;;5006536;28;20058;-78
2023/08/12 12:31:09;;;;;;;4.88;3.60;;;;;;;;;;5009938;28;20584;-77
2023/08/12 12:33:36;;;;;;;6.03;3.88;;;;;;;;;;5004835;28;20132;-77
2023/08/12 12:36:05;;;;;;;4.97;3.58;;;;;;;;;;5007866;28;20059;-78
2023/08/12 12:38:31;;;;;;;6.57;3.65;;;;;;;;;;5009974;28;20092;-78
2023/08/12 12:40:58;;;;;;;4.70;3.95;;;;;;;;;;5005402;28;20045;-79
2023/08/12 12:43:25;;;;;;;4.18;3.67;;;;;;;;;;5007855;28;20136;-79
2023/08/12 12:45:53;;;;;;;5.18;3.70;;;;;;;;;;5015689;28;20041;-79
2023/08/12 12:48:20;;;;;;;4.82;3.88;;;;;;;;;;5010738;28;20041;-78
2023/08/12 12:50:46;;;;;;;5.47;3.78;;;;;;;;;;5005501;28;20120;-78
2023/08/12 12:53:13;;;;;;;5.13;3.78;;;;;;;;;;5015463;28;20053;-79
2023/08/12 12:55:40;;;;;;;4.55;3.80;;;;;;;;;;5016473;28;20085;-78
2023/08/12 12:58:06;;;;;;;4.88;3.40;;;;;;;;;;5013929;28;20464;-78
2023/08/12 13:00:33;;;;;;;4.35;3.17;;;;;;;;;;5007975;28;20053;-78
2023/08/12 13:03:01;;;;;;;5.10;3.20;;;;;;;;;;5011970;28;20082;-78
2023/08/12 13:05:28;;;;;;;4.47;3.17;;;;;;;;;;5009055;28;20050;-78
2023/08/12 13:07:55;;;;;;;4.22;2.95;;;;;;;;;;5009241;28;20050;-78
2023/08/12 13:10:21;;;;;;;4.40;2.95;;;;;;;;;;5009792;28;20092;-78
2023/08/12 13:12:48;;;;;;;4.60;3.20;;;;;;;;;;5011892;28;20118;-78
2023/08/12 13:15:15;;;;;;;3.75;2.60;;;;;;;;;;5010525;28;20114;-78
2023/08/12 13:17:42;;;;;;;3.53;2.63;;;;;;;;;;5012206;28;20049;-78
2023/08/12 13:20:11;;;;;;;6.22;3.15;;;;;;;;;;5012166;28;20510;-78
2023/08/12 13:22:38;;;;;;;5.03;2.92;;;;;;;;;;5006704;28;20073;-78
2023/08/12 13:25:05;;;;;;;4.43;2.85;;;;;;;;;;5007503;28;20069;-77
2023/08/12 13:27:32;;;;;;;4.03;2.60;;;;;;;;;;5016869;28;20488;-77
2023/08/12 13:29:59;;;;;;;4.85;3.40;;;;;;;;;;5017063;28;20054;-77
2023/08/12 13:32:26;;;;;;;5.00;3.20;;;;;;;;;;5014317;28;20080;-78
2023/08/12 13:34:52;;;;;;;5.43;3.03;;;;;;;;;;5008117;28;20136;-77
2023/08/12 13:37:20;;;;;;;4.65;3.20;;;;;;;;;;5008324;28;20500;-77
2023/08/12 13:39:47;;;;;;;5.78;3.15;;;;;;;;;;5012202;28;20050;-79
2023/08/12 13:42:13;;;;;;;5.70;3.10;;;;;;;;;;5007295;28;20046;-78
2023/08/12 13:44:40;;;;;;;4.75;3.17;;;;;;;;;;5004924;28;20073;-79
2023/08/12 13:47:07;;;;;;;6.55;3.03;;;;;;;;;;5009968;28;20076;-78
2023/08/12 13:49:33;;;;;;;4.38;3.03;;;;;;;;;;5008543;28;20050;-78
2023/08/12 13:52:00;;;;;;;5.53;3.20;;;;;;;;;;5020674;28;20195;-79
2023/08/12 13:54:28;;;;;;;6.25;3.25;;;;;;;;;;5016386;28;20115;-78
2023/08/12 13:56:55;;;;;;;4.60;3.15;;;;;;;;;;5018618;28;20136;-78
2023/08/12 13:59:21;;;;;;;4.30;3.03;;;;;;;;;;5020131;28;20109;-78
2023/08/12 14:01:48;;;;;;;5.30;2.90;;;;;;;;;;5019628;28;20046;-78
2023/08/12 14:04:15;;;;;;;3.95;2.70;;;;;;;;;;5015411;28;20116;-78
2023/08/12 14:06:43;;;;;;;4.80;2.85;;;;;;;;;;5014448;28;20101;-78
2023/08/12 14:09:12;;;;;;;5.18;3.10;;;;;;;;;;5017991;28;20524;-78
2023/08/12 14:11:40;;;;;;;5.57;2.92;;;;;;;;;;5017534;28;20073;-78
2023/08/12 14:14:07;;;;;;;5.07;3.05;;;;;;;;;;5016531;28;20934;-78
2023/08/12 14:16:37;;;;;;;5.63;3.30;;;;;;;;;;5012233;28;20052;-81
2023/08/12 14:19:04;;;;;;;5.95;3.33;;;;;;;;;;5016377;28;20054;-82
2023/08/12 14:21:30;;;;;;;5.45;3.20;;;;;;;;;;5017171;28;20477;-81
2023/08/12 14:23:57;;;;;;;5.03;3.03;;;;;;;;;;5013691;28;20052;-78
2023/08/12 14:26:24;;;;;;;7.10;5.68;;;;;;;;;;5015483;28;20084;-79
2023/08/12 14:28:52;;;;;;;4.82;3.80;;;;;;;;;;5028039;28;20056;-78
2023/08/12 14:31:18;;;;;;;4.68;3.95;;;;;;;;;;5021282;28;20077;-78
2023/08/12 14:33:45;;;;;;;4.53;3.47;;;;;;;;;;5007914;28;20065;-81
2023/08/12 14:36:12;;;;;;;6.03;4.07;;;;;;;;;;5006936;28;20140;-78
2023/08/12 14:38:38;;;;;;;4.65;3.65;;;;;;;;;;5007633;28;20104;-78
2023/08/12 14:41:05;;;;;;;7.18;3.67;;;;;;;;;;5007688;28;20137;-79
2023/08/12 14:43:32;;;;;;;5.22;4.40;;;;;;;;;;5011595;28;20081;-79
2023/08/12 14:46:00;;;;;;;5.43;4.20;;;;;;;;;;5013659;28;20053;-80